sensor_id;sensor_type;location;lat;lon;timestamp;P1;durP1;ratioP1;P2;durP2;ratioP2
55455;SDS011;63021;52.836;6.376;2023-03-23T00:01:59;11.23;;;7.28;;
55455;SDS011;63021;52.836;6.376;2023-03-23T00:04:24;9.07;;;7.15;;
55455;SDS011;63021;52.836;6.376;2023-03-23T00:06:52;10.00;;;7.30;;
55455;SDS011;63021;52.836;6.376;2023-03-23T00:09:17;7.95;;;6.80;;
55455;SDS011;63021;52.836;6.376;2023-03-23T00:11:49;12.55;;;7.90;;
55455;SDS011;63021;52.836;6.376;2023-03-23T00:14:15;8.23;;;6.28;;
55455;SDS011;63021;52.836;6.376;2023-03-23T00:16:41;8.52;;;6.50;;
55455;SDS011;63021;52.836;6.376;2023-03-23T00:19:10;12.02;;;6.32;;
55455;SDS011;63021;52.836;6.376;2023-03-23T00:21:40;9.27;;;6.15;;
55455;SDS011;63021;52.836;6.376;2023-03-23T00:24:16;9.45;;;6.05;;
55455;SDS011;63021;52.836;6.376;2023-03-23T00:26:44;9.63;;;6.47;;
55455;SDS011;63021;52.836;6.376;2023-03-23T00:29:16;8.25;;;6.35;;
55455;SDS011;63021;52.836;6.376;2023-03-23T00:31:46;13.52;;;8.07;;
55455;SDS011;63021;52.836;6.376;2023-03-23T00:34:15;15.18;;;6.75;;
55455;SDS011;63021;52.836;6.376;2023-03-23T00:36:45;10.90;;;6.30;;
55455;SDS011;63021;52.836;6.376;2023-03-23T00:39:14;10.40;;;6.78;;
55455;SDS011;63021;52.836;6.376;2023-03-23T00:41:41;9.18;;;5.88;;
55455;SDS011;63021;52.836;6.376;2023-03-23T00:44:12;10.45;;;5.93;;
55455;SDS011;63021;52.836;6.376;2023-03-23T00:46:49;10.65;;;5.75;;
55455;SDS011;63021;52.836;6.376;2023-03-23T00:49:15;9.43;;;4.75;;
55455;SDS011;63021;52.836;6.376;2023-03-23T00:51:43;7.57;;;5.55;;
55455;SDS011;63021;52.836;6.376;2023-03-23T00:54:09;13.52;;;5.45;;
55455;SDS011;63021;52.836;6.376;2023-03-23T00:56:35;9.93;;;4.72;;
55455;SDS011;63021;52.836;6.376;2023-03-23T00:59:02;11.77;;;5.50;;
55455;SDS011;63021;52.836;6.376;2023-03-23T01:01:27;6.22;;;4.60;;
55455;SDS011;63021;52.836;6.376;2023-03-23T01:03:53;8.48;;;5.07;;
55455;SDS011;63021;52.836;6.376;2023-03-23T01:06:26;10.27;;;5.35;;
55455;SDS011;63021;52.836;6.376;2023-03-23T01:08:52;6.80;;;4.72;;
55455;SDS011;63021;52.836;6.376;2023-03-23T01:11:19;5.53;;;5.03;;
55455;SDS011;63021;52.836;6.376;2023-03-23T01:13:44;7.03;;;3.95;;
55455;SDS011;63021;52.836;6.376;2023-03-23T01:16:10;7.75;;;3.92;;
55455;SDS011;63021;52.836;6.376;2023-03-23T01:18:36;6.38;;;4.18;;
55455;SDS011;63021;52.836;6.376;2023-03-23T01:21:09;9.13;;;4.80;;
55455;SDS011;63021;52.836;6.376;2023-03-23T01:23:37;5.78;;;4.10;;
55455;SDS011;63021;52.836;6.376;2023-03-23T01:26:04;6.22;;;4.55;;
55455;SDS011;63021;52.836;6.376;2023-03-23T01:28:32;8.70;;;4.90;;
55455;SDS011;63021;52.836;6.376;2023-03-23T01:31:02;7.18;;;3.83;;
55455;SDS011;63021;52.836;6.376;2023-03-23T01:33:29;8.10;;;3.78;;
55455;SDS011;63021;52.836;6.376;2023-03-23T01:35:55;5.63;;;3.78;;
55455;SDS011;63021;52.836;6.376;2023-03-23T01:38:21;8.02;;;4.53;;
55455;SDS011;63021;52.836;6.376;2023-03-23T01:40:46;8.23;;;4.30;;
55455;SDS011;63021;52.836;6.376;2023-03-23T01:43:13;6.35;;;3.97;;
55455;SDS011;63021;52.836;6.376;2023-03-23T01:45:39;6.38;;;4.13;;
55455;SDS011;63021;52.836;6.376;2023-03-23T01:48:39;7.68;;;4.13;;
55455;SDS011;63021;52.836;6.376;2023-03-23T01:53:45;6.38;;;4.63;;
55455;SDS011;63021;52.836;6.376;2023-03-23T01:56:14;6.05;;;3.75;;
55455;SDS011;63021;52.836;6.376;2023-03-23T01:58:43;4.72;;;3.65;;
55455;SDS011;63021;52.836;6.376;2023-03-23T02:01:11;4.57;;;3.85;;
55455;SDS011;63021;52.836;6.376;2023-03-23T02:03:42;10.85;;;4.88;;
55455;SDS011;63021;52.836;6.376;2023-03-23T02:06:13;5.40;;;3.75;;
55455;SDS011;63021;52.836;6.376;2023-03-23T02:08:40;5.28;;;4.15;;
55455;SDS011;63021;52.836;6.376;2023-03-23T02:11:19;6.80;;;3.67;;
55455;SDS011;63021;52.836;6.376;2023-03-23T02:13:46;7.43;;;4.30;;
55455;SDS011;63021;52.836;6.376;2023-03-23T02:22:18;7.47;;;4.18;;
55455;SDS011;63021;52.836;6.376;2023-03-23T02:39:17;8.82;;;3.58;;
55455;SDS011;63021;52.836;6.376;2023-03-23T02:41:55;6.45;;;3.88;;
55455;SDS011;63021;52.836;6.376;2023-03-23T02:44:25;4.00;;;3.28;;
55455;SDS011;63021;52.836;6.376;2023-03-23T02:46:55;6.55;;;3.40;;
55455;SDS011;63021;52.836;6.376;2023-03-23T02:49:21;4.60;;;3.35;;
55455;SDS011;63021;52.836;6.376;2023-03-23T02:51:50;6.80;;;3.72;;
55455;SDS011;63021;52.836;6.376;2023-03-23T02:54:18;5.88;;;2.92;;
55455;SDS011;63021;52.836;6.376;2023-03-23T02:56:45;6.85;;;3.50;;
55455;SDS011;63021;52.836;6.376;2023-03-23T02:59:12;7.05;;;3.30;;
55455;SDS011;63021;52.836;6.376;2023-03-23T03:04:04;4.20;;;3.15;;
55455;SDS011;63021;52.836;6.376;2023-03-23T03:06:41;5.50;;;3.28;;
55455;SDS011;63021;52.836;6.376;2023-03-23T03:12:02;6.38;;;4.38;;
55455;SDS011;63021;52.836;6.376;2023-03-23T03:14:36;3.88;;;3.15;;
55455;SDS011;63021;52.836;6.376;2023-03-23T03:17:25;8.30;;;4.03;;
55455;SDS011;63021;52.836;6.376;2023-03-23T03:19:58;8.70;;;3.28;;
55455;SDS011;63021;52.836;6.376;2023-03-23T03:22:46;10.05;;;3.78;;
55455;SDS011;63021;52.836;6.376;2023-03-23T03:25:13;5.43;;;3.28;;
55455;SDS011;63021;52.836;6.376;2023-03-23T03:27:40;8.13;;;3.65;;
55455;SDS011;63021;52.836;6.376;2023-03-23T03:30:10;2.80;;;2.60;;
55455;SDS011;63021;52.836;6.376;2023-03-23T03:32:49;4.65;;;3.17;;
55455;SDS011;63021;52.836;6.376;2023-03-23T03:35:18;8.65;;;4.03;;
55455;SDS011;63021;52.836;6.376;2023-03-23T03:37:46;6.22;;;3.95;;
55455;SDS011;63021;52.836;6.376;2023-03-23T03:40:14;5.10;;;3.80;;
55455;SDS011;63021;52.836;6.376;2023-03-23T03:42:42;6.65;;;3.58;;
55455;SDS011;63021;52.836;6.376;2023-03-23T03:45:10;5.80;;;3.65;;
55455;SDS011;63021;52.836;6.376;2023-03-23T03:47:38;5.18;;;2.83;;
55455;SDS011;63021;52.836;6.376;2023-03-23T03:50:04;7.28;;;3.67;;
55455;SDS011;63021;52.836;6.376;2023-03-23T03:52:30;6.43;;;3.58;;
55455;SDS011;63021;52.836;6.376;2023-03-23T03:54:56;9.77;;;3.75;;
55455;SDS011;63021;52.836;6.376;2023-03-23T03:57:22;6.05;;;3.45;;
55455;SDS011;63021;52.836;6.376;2023-03-23T03:59:48;7.88;;;3.65;;
55455;SDS011;63021;52.836;6.376;2023-03-23T04:02:14;4.50;;;3.58;;
55455;SDS011;63021;52.836;6.376;2023-03-23T04:04:44;4.45;;;4.03;;
55455;SDS011;63021;52.836;6.376;2023-03-23T04:07:11;4.30;;;3.30;;
55455;SDS011;63021;52.836;6.376;2023-03-23T04:09:38;6.65;;;3.15;;
55455;SDS011;63021;52.836;6.376;2023-03-23T04:12:04;5.85;;;4.18;;
55455;SDS011;63021;52.836;6.376;2023-03-23T04:14:30;5.80;;;3.55;;
55455;SDS011;63021;52.836;6.376;2023-03-23T04:16:56;5.47;;;4.22;;
55455;SDS011;63021;52.836;6.376;2023-03-23T04:19:25;9.65;;;4.72;;
55455;SDS011;63021;52.836;6.376;2023-03-23T04:21:53;7.32;;;3.85;;
55455;SDS011;63021;52.836;6.376;2023-03-23T04:24:20;8.45;;;3.75;;
55455;SDS011;63021;52.836;6.376;2023-03-23T04:26:49;7.03;;;3.83;;
55455;SDS011;63021;52.836;6.376;2023-03-23T04:29:17;7.35;;;4.80;;
55455;SDS011;63021;52.836;6.376;2023-03-23T04:31:43;4.50;;;3.90;;
55455;SDS011;63021;52.836;6.376;2023-03-23T04:34:10;11.98;;;4.35;;
55455;SDS011;63021;52.836;6.376;2023-03-23T04:36:38;6.18;;;3.78;;
55455;SDS011;63021;52.836;6.376;2023-03-23T04:39:04;4.15;;;3.53;;
55455;SDS011;63021;52.836;6.376;2023-03-23T04:41:34;7.13;;;3.67;;
55455;SDS011;63021;52.836;6.376;2023-03-23T04:44:03;11.23;;;4.28;;
55455;SDS011;63021;52.836;6.376;2023-03-23T04:46:29;8.32;;;3.67;;
55455;SDS011;63021;52.836;6.376;2023-03-23T04:48:55;8.68;;;4.32;;
55455;SDS011;63021;52.836;6.376;2023-03-23T04:51:23;5.20;;;2.75;;
55455;SDS011;63021;52.836;6.376;2023-03-23T04:53:51;5.85;;;2.15;;
55455;SDS011;63021;52.836;6.376;2023-03-23T04:56:16;3.45;;;1.50;;
55455;SDS011;63021;52.836;6.376;2023-03-23T04:58:44;4.00;;;1.38;;
55455;SDS011;63021;52.836;6.376;2023-03-23T05:01:10;2.67;;;1.65;;
55455;SDS011;63021;52.836;6.376;2023-03-23T05:03:39;9.02;;;2.40;;
55455;SDS011;63021;52.836;6.376;2023-03-23T05:06:05;4.45;;;1.83;;
55455;SDS011;63021;52.836;6.376;2023-03-23T05:08:31;4.40;;;1.80;;
55455;SDS011;63021;52.836;6.376;2023-03-23T05:10:57;4.38;;;2.15;;
55455;SDS011;63021;52.836;6.376;2023-03-23T05:13:24;7.93;;;2.28;;
55455;SDS011;63021;52.836;6.376;2023-03-23T05:15:50;4.95;;;2.30;;
55455;SDS011;63021;52.836;6.376;2023-03-23T05:18:15;9.98;;;2.30;;
55455;SDS011;63021;52.836;6.376;2023-03-23T05:20:41;7.80;;;2.10;;
55455;SDS011;63021;52.836;6.376;2023-03-23T05:23:07;11.30;;;3.72;;
55455;SDS011;63021;52.836;6.376;2023-03-23T05:25:34;10.02;;;2.78;;
55455;SDS011;63021;52.836;6.376;2023-03-23T05:28:04;10.13;;;3.97;;
55455;SDS011;63021;52.836;6.376;2023-03-23T05:30:31;8.65;;;3.47;;
55455;SDS011;63021;52.836;6.376;2023-03-23T05:32:56;10.55;;;3.33;;
55455;SDS011;63021;52.836;6.376;2023-03-23T05:35:21;11.25;;;3.40;;
55455;SDS011;63021;52.836;6.376;2023-03-23T05:37:47;12.23;;;3.13;;
55455;SDS011;63021;52.836;6.376;2023-03-23T05:40:13;11.23;;;2.95;;
55455;SDS011;63021;52.836;6.376;2023-03-23T05:42:39;16.60;;;3.75;;
55455;SDS011;63021;52.836;6.376;2023-03-23T05:45:10;8.25;;;2.58;;
55455;SDS011;63021;52.836;6.376;2023-03-23T05:47:37;11.38;;;3.13;;
55455;SDS011;63021;52.836;6.376;2023-03-23T05:50:04;8.73;;;2.20;;
55455;SDS011;63021;52.836;6.376;2023-03-23T05:52:31;6.82;;;2.03;;
55455;SDS011;63021;52.836;6.376;2023-03-23T05:54:58;10.13;;;2.28;;
55455;SDS011;63021;52.836;6.376;2023-03-23T05:57:24;6.82;;;1.52;;
55455;SDS011;63021;52.836;6.376;2023-03-23T05:59:49;5.75;;;1.80;;
55455;SDS011;63021;52.836;6.376;2023-03-23T06:02:15;9.00;;;2.10;;
55455;SDS011;63021;52.836;6.376;2023-03-23T06:04:41;8.63;;;2.90;;
55455;SDS011;63021;52.836;6.376;2023-03-23T06:07:07;5.95;;;1.83;;
55455;SDS011;63021;52.836;6.376;2023-03-23T06:09:33;4.32;;;1.73;;
55455;SDS011;63021;52.836;6.376;2023-03-23T06:11:58;10.25;;;2.00;;
55455;SDS011;63021;52.836;6.376;2023-03-23T06:14:24;7.45;;;2.85;;
55455;SDS011;63021;52.836;6.376;2023-03-23T06:16:49;7.13;;;2.15;;
55455;SDS011;63021;52.836;6.376;2023-03-23T06:19:15;11.82;;;2.53;;
55455;SDS011;63021;52.836;6.376;2023-03-23T06:21:41;7.10;;;2.22;;
55455;SDS011;63021;52.836;6.376;2023-03-23T06:24:08;4.85;;;2.35;;
55455;SDS011;63021;52.836;6.376;2023-03-23T06:26:36;11.27;;;2.85;;
55455;SDS011;63021;52.836;6.376;2023-03-23T06:29:04;20.17;;;3.13;;
55455;SDS011;63021;52.836;6.376;2023-03-23T06:31:36;12.18;;;3.03;;
55455;SDS011;63021;52.836;6.376;2023-03-23T06:34:03;12.98;;;3.08;;
55455;SDS011;63021;52.836;6.376;2023-03-23T06:36:29;13.85;;;3.30;;
55455;SDS011;63021;52.836;6.376;2023-03-23T06:38:54;13.98;;;3.25;;
55455;SDS011;63021;52.836;6.376;2023-03-23T06:41:20;13.35;;;3.10;;
55455;SDS011;63021;52.836;6.376;2023-03-23T06:43:46;17.48;;;3.80;;
55455;SDS011;63021;52.836;6.376;2023-03-23T06:46:12;21.25;;;3.70;;
55455;SDS011;63021;52.836;6.376;2023-03-23T06:48:37;21.05;;;4.38;;
55455;SDS011;63021;52.836;6.376;2023-03-23T06:51:03;21.38;;;4.63;;
55455;SDS011;63021;52.836;6.376;2023-03-23T06:53:29;20.90;;;4.68;;
55455;SDS011;63021;52.836;6.376;2023-03-23T06:56:02;14.10;;;3.88;;
55455;SDS011;63021;52.836;6.376;2023-03-23T06:58:28;15.57;;;3.30;;
55455;SDS011;63021;52.836;6.376;2023-03-23T07:00:56;16.70;;;3.72;;
55455;SDS011;63021;52.836;6.376;2023-03-23T07:03:23;14.50;;;3.65;;
55455;SDS011;63021;52.836;6.376;2023-03-23T07:05:48;13.95;;;3.35;;
55455;SDS011;63021;52.836;6.376;2023-03-23T07:08:18;20.30;;;3.67;;
55455;SDS011;63021;52.836;6.376;2023-03-23T07:10:54;16.30;;;3.35;;
55455;SDS011;63021;52.836;6.376;2023-03-23T07:13:23;15.60;;;3.22;;
55455;SDS011;63021;52.836;6.376;2023-03-23T07:15:52;17.88;;;4.63;;
55455;SDS011;63021;52.836;6.376;2023-03-23T07:18:18;23.38;;;4.28;;
55455;SDS011;63021;52.836;6.376;2023-03-23T07:20:46;16.27;;;4.05;;
55455;SDS011;63021;52.836;6.376;2023-03-23T07:23:15;18.35;;;4.22;;
55455;SDS011;63021;52.836;6.376;2023-03-23T07:25:42;20.02;;;3.38;;
55455;SDS011;63021;52.836;6.376;2023-03-23T07:28:08;14.90;;;3.28;;
55455;SDS011;63021;52.836;6.376;2023-03-23T07:30:37;16.23;;;3.65;;
55455;SDS011;63021;52.836;6.376;2023-03-23T07:33:06;17.95;;;4.22;;
55455;SDS011;63021;52.836;6.376;2023-03-23T07:35:39;11.98;;;3.47;;
55455;SDS011;63021;52.836;6.376;2023-03-23T07:38:12;19.50;;;4.88;;
55455;SDS011;63021;52.836;6.376;2023-03-23T07:43:07;22.30;;;4.75;;
55455;SDS011;63021;52.836;6.376;2023-03-23T07:45:32;20.65;;;4.47;;
55455;SDS011;63021;52.836;6.376;2023-03-23T07:47:58;15.27;;;4.40;;
55455;SDS011;63021;52.836;6.376;2023-03-23T07:50:26;22.60;;;3.80;;
55455;SDS011;63021;52.836;6.376;2023-03-23T07:52:55;26.98;;;5.13;;
55455;SDS011;63021;52.836;6.376;2023-03-23T07:55:22;29.38;;;4.68;;
55455;SDS011;63021;52.836;6.376;2023-03-23T07:57:50;19.42;;;4.18;;
55455;SDS011;63021;52.836;6.376;2023-03-23T08:00:16;22.05;;;5.85;;
55455;SDS011;63021;52.836;6.376;2023-03-23T08:02:48;22.80;;;4.75;;
55455;SDS011;63021;52.836;6.376;2023-03-23T08:05:15;28.92;;;5.55;;
55455;SDS011;63021;52.836;6.376;2023-03-23T08:07:42;21.42;;;4.93;;
55455;SDS011;63021;52.836;6.376;2023-03-23T08:10:10;24.25;;;4.55;;
55455;SDS011;63021;52.836;6.376;2023-03-23T08:12:37;19.40;;;4.43;;
55455;SDS011;63021;52.836;6.376;2023-03-23T08:15:11;19.33;;;4.70;;
55455;SDS011;63021;52.836;6.376;2023-03-23T08:17:40;30.83;;;5.43;;
55455;SDS011;63021;52.836;6.376;2023-03-23T08:20:07;23.45;;;4.90;;
55455;SDS011;63021;52.836;6.376;2023-03-23T08:22:37;18.98;;;4.28;;
55455;SDS011;63021;52.836;6.376;2023-03-23T08:25:04;16.13;;;4.10;;
55455;SDS011;63021;52.836;6.376;2023-03-23T08:27:32;23.65;;;4.10;;
55455;SDS011;63021;52.836;6.376;2023-03-23T08:29:57;17.50;;;3.83;;
55455;SDS011;63021;52.836;6.376;2023-03-23T08:32:24;19.98;;;4.15;;
55455;SDS011;63021;52.836;6.376;2023-03-23T08:34:50;18.60;;;4.05;;
55455;SDS011;63021;52.836;6.376;2023-03-23T08:37:16;20.08;;;4.40;;
55455;SDS011;63021;52.836;6.376;2023-03-23T08:39:41;20.92;;;5.32;;
55455;SDS011;63021;52.836;6.376;2023-03-23T08:42:10;25.90;;;4.63;;
55455;SDS011;63021;52.836;6.376;2023-03-23T08:44:36;20.95;;;4.57;;
55455;SDS011;63021;52.836;6.376;2023-03-23T08:47:02;24.73;;;4.70;;
55455;SDS011;63021;52.836;6.376;2023-03-23T08:49:30;20.08;;;5.82;;
55455;SDS011;63021;52.836;6.376;2023-03-23T08:51:57;16.63;;;3.78;;
55455;SDS011;63021;52.836;6.376;2023-03-23T08:54:24;25.20;;;6.57;;
55455;SDS011;63021;52.836;6.376;2023-03-23T08:56:49;18.38;;;5.00;;
55455;SDS011;63021;52.836;6.376;2023-03-23T08:59:16;20.13;;;4.93;;
55455;SDS011;63021;52.836;6.376;2023-03-23T09:01:41;28.52;;;4.78;;
55455;SDS011;63021;52.836;6.376;2023-03-23T09:04:07;22.15;;;5.47;;
55455;SDS011;63021;52.836;6.376;2023-03-23T09:06:34;21.17;;;5.35;;
55455;SDS011;63021;52.836;6.376;2023-03-23T09:09:01;24.40;;;5.07;;
55455;SDS011;63021;52.836;6.376;2023-03-23T09:11:31;22.75;;;5.38;;
55455;SDS011;63021;52.836;6.376;2023-03-23T09:14:00;25.27;;;5.57;;
55455;SDS011;63021;52.836;6.376;2023-03-23T09:16:26;20.40;;;4.13;;
55455;SDS011;63021;52.836;6.376;2023-03-23T09:18:52;19.80;;;4.65;;
55455;SDS011;63021;52.836;6.376;2023-03-23T09:21:18;25.63;;;4.72;;
55455;SDS011;63021;52.836;6.376;2023-03-23T09:23:44;26.80;;;5.28;;
55455;SDS011;63021;52.836;6.376;2023-03-23T09:26:10;21.33;;;5.03;;
55455;SDS011;63021;52.836;6.376;2023-03-23T09:28:36;18.90;;;3.70;;
55455;SDS011;63021;52.836;6.376;2023-03-23T09:31:01;20.13;;;3.60;;
55455;SDS011;63021;52.836;6.376;2023-03-23T09:33:27;19.05;;;4.15;;
55455;SDS011;63021;52.836;6.376;2023-03-23T09:35:57;20.73;;;3.90;;
55455;SDS011;63021;52.836;6.376;2023-03-23T09:38:23;25.05;;;5.15;;
55455;SDS011;63021;52.836;6.376;2023-03-23T09:46:45;19.10;;;4.32;;
55455;SDS011;63021;52.836;6.376;2023-03-23T09:49:01;19.55;;;4.10;;
55455;SDS011;63021;52.836;6.376;2023-03-23T09:54:36;16.88;;;4.38;;
55455;SDS011;63021;52.836;6.376;2023-03-23T09:57:05;18.13;;;4.35;;
55455;SDS011;63021;52.836;6.376;2023-03-23T09:59:44;19.60;;;3.60;;
55455;SDS011;63021;52.836;6.376;2023-03-23T10:02:30;22.00;;;3.88;;
55455;SDS011;63021;52.836;6.376;2023-03-23T10:05:36;12.57;;;3.15;;
55455;SDS011;63021;52.836;6.376;2023-03-23T10:07:58;19.92;;;4.25;;
55455;SDS011;63021;52.836;6.376;2023-03-23T10:10:36;16.70;;;5.07;;
55455;SDS011;63021;52.836;6.376;2023-03-23T10:13:11;12.15;;;3.85;;
55455;SDS011;63021;52.836;6.376;2023-03-23T10:15:45;23.85;;;5.00;;
55455;SDS011;63021;52.836;6.376;2023-03-23T10:18:15;15.20;;;3.58;;
55455;SDS011;63021;52.836;6.376;2023-03-23T10:20:50;13.77;;;3.95;;
55455;SDS011;63021;52.836;6.376;2023-03-23T10:23:31;16.42;;;4.03;;
55455;SDS011;63021;52.836;6.376;2023-03-23T10:28:57;18.50;;;4.35;;
55455;SDS011;63021;52.836;6.376;2023-03-23T10:31:38;12.48;;;3.42;;
55455;SDS011;63021;52.836;6.376;2023-03-23T10:37:21;8.43;;;3.00;;
55455;SDS011;63021;52.836;6.376;2023-03-23T10:39:51;9.00;;;2.42;;
55455;SDS011;63021;52.836;6.376;2023-03-23T10:42:30;10.27;;;2.65;;
55455;SDS011;63021;52.836;6.376;2023-03-23T10:45:00;14.20;;;2.95;;
55455;SDS011;63021;52.836;6.376;2023-03-23T10:47:35;10.10;;;2.95;;
55455;SDS011;63021;52.836;6.376;2023-03-23T10:50:04;14.45;;;3.92;;
55455;SDS011;63021;52.836;6.376;2023-03-23T10:52:36;9.88;;;2.85;;
55455;SDS011;63021;52.836;6.376;2023-03-23T10:57:58;13.77;;;3.13;;
55455;SDS011;63021;52.836;6.376;2023-03-23T11:00:29;8.18;;;2.85;;
55455;SDS011;63021;52.836;6.376;2023-03-23T11:03:03;14.45;;;3.00;;
55455;SDS011;63021;52.836;6.376;2023-03-23T11:05:41;14.07;;;3.97;;
55455;SDS011;63021;52.836;6.376;2023-03-23T11:08:13;12.23;;;3.67;;
55455;SDS011;63021;52.836;6.376;2023-03-23T11:10:47;12.15;;;2.70;;
55455;SDS011;63021;52.836;6.376;2023-03-23T11:13:16;9.25;;;2.63;;
55455;SDS011;63021;52.836;6.376;2023-03-23T11:15:43;15.35;;;2.65;;
55455;SDS011;63021;52.836;6.376;2023-03-23T11:18:21;14.65;;;3.05;;
55455;SDS011;63021;52.836;6.376;2023-03-23T11:20:49;11.30;;;2.83;;
55455;SDS011;63021;52.836;6.376;2023-03-23T11:23:29;14.18;;;4.15;;
55455;SDS011;63021;52.836;6.376;2023-03-23T11:28:34;12.07;;;3.08;;
55455;SDS011;63021;52.836;6.376;2023-03-23T11:31:04;16.20;;;3.63;;
55455;SDS011;63021;52.836;6.376;2023-03-23T11:36:05;9.13;;;2.90;;
55455;SDS011;63021;52.836;6.376;2023-03-23T11:38:33;9.68;;;3.10;;
55455;SDS011;63021;52.836;6.376;2023-03-23T11:40:59;7.20;;;2.38;;
55455;SDS011;63021;52.836;6.376;2023-03-23T11:43:25;13.88;;;3.63;;
55455;SDS011;63021;52.836;6.376;2023-03-23T11:51:12;15.05;;;3.92;;
55455;SDS011;63021;52.836;6.376;2023-03-23T11:56:27;13.63;;;2.80;;
55455;SDS011;63021;52.836;6.376;2023-03-23T11:58:56;7.60;;;3.15;;
55455;SDS011;63021;52.836;6.376;2023-03-23T12:07:06;19.80;;;3.17;;
55455;SDS011;63021;52.836;6.376;2023-03-23T12:09:40;11.05;;;2.83;;
55455;SDS011;63021;52.836;6.376;2023-03-23T12:17:36;9.00;;;3.20;;
55455;SDS011;63021;52.836;6.376;2023-03-23T12:23:29;11.70;;;3.05;;
55455;SDS011;63021;52.836;6.376;2023-03-23T12:42:14;20.98;;;4.95;;
55455;SDS011;63021;52.836;6.376;2023-03-23T12:44:50;15.52;;;4.22;;
55455;SDS011;63021;52.836;6.376;2023-03-23T12:50:07;12.95;;;3.65;;
55455;SDS011;63021;52.836;6.376;2023-03-23T12:52:37;10.48;;;2.90;;
55455;SDS011;63021;52.836;6.376;2023-03-23T12:58:10;7.63;;;2.70;;
55455;SDS011;63021;52.836;6.376;2023-03-23T13:03:27;22.58;;;3.85;;
55455;SDS011;63021;52.836;6.376;2023-03-23T13:06:04;12.45;;;2.70;;
55455;SDS011;63021;52.836;6.376;2023-03-23T13:08:56;11.05;;;3.67;;
55455;SDS011;63021;52.836;6.376;2023-03-23T13:11:32;19.08;;;2.63;;
55455;SDS011;63021;52.836;6.376;2023-03-23T13:25:49;11.82;;;2.70;;
55455;SDS011;63021;52.836;6.376;2023-03-23T13:31:25;17.70;;;3.30;;
55455;SDS011;63021;52.836;6.376;2023-03-23T13:34:02;12.05;;;3.35;;
55455;SDS011;63021;52.836;6.376;2023-03-23T13:36:42;14.35;;;3.20;;
55455;SDS011;63021;52.836;6.376;2023-03-23T13:42:27;7.85;;;2.22;;
55455;SDS011;63021;52.836;6.376;2023-03-23T13:48:01;11.13;;;2.47;;
55455;SDS011;63021;52.836;6.376;2023-03-23T13:50:31;12.88;;;2.47;;
55455;SDS011;63021;52.836;6.376;2023-03-23T13:53:14;14.00;;;3.00;;
55455;SDS011;63021;52.836;6.376;2023-03-23T13:55:48;10.05;;;2.38;;
55455;SDS011;63021;52.836;6.376;2023-03-23T13:58:23;19.35;;;3.22;;
55455;SDS011;63021;52.836;6.376;2023-03-23T14:01:00;13.63;;;3.47;;
55455;SDS011;63021;52.836;6.376;2023-03-23T14:03:36;9.35;;;2.78;;
55455;SDS011;63021;52.836;6.376;2023-03-23T14:06:05;18.73;;;3.72;;
55455;SDS011;63021;52.836;6.376;2023-03-23T14:08:40;15.05;;;3.88;;
55455;SDS011;63021;52.836;6.376;2023-03-23T14:11:12;18.70;;;3.25;;
55455;SDS011;63021;52.836;6.376;2023-03-23T14:18:59;10.13;;;2.30;;
55455;SDS011;63021;52.836;6.376;2023-03-23T14:21:37;16.08;;;3.55;;
55455;SDS011;63021;52.836;6.376;2023-03-23T14:24:27;11.95;;;2.63;;
55455;SDS011;63021;52.836;6.376;2023-03-23T14:27:09;12.57;;;4.10;;
55455;SDS011;63021;52.836;6.376;2023-03-23T14:29:36;11.57;;;2.70;;
55455;SDS011;63021;52.836;6.376;2023-03-23T14:32:01;12.07;;;3.60;;
55455;SDS011;63021;52.836;6.376;2023-03-23T14:34:31;12.43;;;3.25;;
55455;SDS011;63021;52.836;6.376;2023-03-23T14:36:58;9.63;;;2.53;;
55455;SDS011;63021;52.836;6.376;2023-03-23T14:39:25;10.30;;;2.70;;
55455;SDS011;63021;52.836;6.376;2023-03-23T14:41:56;10.40;;;3.22;;
55455;SDS011;63021;52.836;6.376;2023-03-23T14:44:33;12.30;;;2.70;;
55455;SDS011;63021;52.836;6.376;2023-03-23T14:49:31;12.48;;;2.67;;
55455;SDS011;63021;52.836;6.376;2023-03-23T14:52:03;12.27;;;2.63;;
55455;SDS011;63021;52.836;6.376;2023-03-23T14:54:34;11.07;;;3.40;;
55455;SDS011;63021;52.836;6.376;2023-03-23T14:57:03;12.38;;;3.35;;
55455;SDS011;63021;52.836;6.376;2023-03-23T14:59:38;8.05;;;2.22;;
55455;SDS011;63021;52.836;6.376;2023-03-23T15:02:10;9.38;;;2.25;;
55455;SDS011;63021;52.836;6.376;2023-03-23T15:04:42;8.73;;;2.60;;
55455;SDS011;63021;52.836;6.376;2023-03-23T15:07:11;8.88;;;2.47;;
55455;SDS011;63021;52.836;6.376;2023-03-23T15:09:39;5.68;;;2.08;;
55455;SDS011;63021;52.836;6.376;2023-03-23T15:12:09;15.95;;;3.15;;
55455;SDS011;63021;52.836;6.376;2023-03-23T15:14:47;12.05;;;2.42;;
55455;SDS011;63021;52.836;6.376;2023-03-23T15:17:20;9.48;;;2.50;;
55455;SDS011;63021;52.836;6.376;2023-03-23T15:19:48;11.25;;;2.97;;
55455;SDS011;63021;52.836;6.376;2023-03-23T15:22:20;15.07;;;4.00;;
55455;SDS011;63021;52.836;6.376;2023-03-23T15:27:44;12.18;;;3.72;;
55455;SDS011;63021;52.836;6.376;2023-03-23T15:30:46;13.60;;;2.65;;
55455;SDS011;63021;52.836;6.376;2023-03-23T15:33:14;12.35;;;2.55;;
55455;SDS011;63021;52.836;6.376;2023-03-23T15:35:50;8.43;;;2.85;;
55455;SDS011;63021;52.836;6.376;2023-03-23T15:38:25;10.55;;;2.42;;
55455;SDS011;63021;52.836;6.376;2023-03-23T15:40:56;14.50;;;2.30;;
55455;SDS011;63021;52.836;6.376;2023-03-23T15:43:27;18.38;;;3.10;;
55455;SDS011;63021;52.836;6.376;2023-03-23T15:50:58;15.05;;;2.92;;
55455;SDS011;63021;52.836;6.376;2023-03-23T15:53:31;12.85;;;3.15;;
55455;SDS011;63021;52.836;6.376;2023-03-23T15:55:59;12.88;;;2.47;;
55455;SDS011;63021;52.836;6.376;2023-03-23T15:58:26;17.13;;;2.90;;
55455;SDS011;63021;52.836;6.376;2023-03-23T16:00:51;16.90;;;3.55;;
55455;SDS011;63021;52.836;6.376;2023-03-23T16:03:24;12.75;;;3.75;;
55455;SDS011;63021;52.836;6.376;2023-03-23T16:05:54;10.88;;;2.75;;
55455;SDS011;63021;52.836;6.376;2023-03-23T16:08:23;14.15;;;4.18;;
55455;SDS011;63021;52.836;6.376;2023-03-23T16:10:48;12.80;;;3.10;;
55455;SDS011;63021;52.836;6.376;2023-03-23T16:13:14;9.77;;;2.60;;
55455;SDS011;63021;52.836;6.376;2023-03-23T16:15:40;8.27;;;2.22;;
55455;SDS011;63021;52.836;6.376;2023-03-23T16:18:05;8.23;;;2.67;;
55455;SDS011;63021;52.836;6.376;2023-03-23T16:20:31;13.88;;;2.80;;
55455;SDS011;63021;52.836;6.376;2023-03-23T16:22:57;8.40;;;3.25;;
55455;SDS011;63021;52.836;6.376;2023-03-23T16:25:23;17.83;;;3.42;;
55455;SDS011;63021;52.836;6.376;2023-03-23T16:27:51;20.75;;;4.28;;
55455;SDS011;63021;52.836;6.376;2023-03-23T16:30:25;11.27;;;2.40;;
55455;SDS011;63021;52.836;6.376;2023-03-23T16:32:52;13.13;;;3.20;;
55455;SDS011;63021;52.836;6.376;2023-03-23T16:35:18;12.52;;;2.80;;
55455;SDS011;63021;52.836;6.376;2023-03-23T16:37:45;13.30;;;2.80;;
55455;SDS011;63021;52.836;6.376;2023-03-23T16:40:12;11.95;;;2.47;;
55455;SDS011;63021;52.836;6.376;2023-03-23T16:42:38;17.27;;;3.15;;
55455;SDS011;63021;52.836;6.376;2023-03-23T16:45:04;11.60;;;2.42;;
55455;SDS011;63021;52.836;6.376;2023-03-23T16:47:30;11.10;;;2.85;;
55455;SDS011;63021;52.836;6.376;2023-03-23T16:49:56;16.25;;;3.63;;
55455;SDS011;63021;52.836;6.376;2023-03-23T16:52:21;16.45;;;3.97;;
55455;SDS011;63021;52.836;6.376;2023-03-23T16:54:47;12.88;;;4.13;;
55455;SDS011;63021;52.836;6.376;2023-03-23T16:57:12;11.65;;;2.85;;
55455;SDS011;63021;52.836;6.376;2023-03-23T16:59:38;11.68;;;3.40;;
55455;SDS011;63021;52.836;6.376;2023-03-23T17:02:03;17.13;;;2.97;;
55455;SDS011;63021;52.836;6.376;2023-03-23T17:04:29;16.13;;;3.42;;
55455;SDS011;63021;52.836;6.376;2023-03-23T17:06:56;14.25;;;3.10;;
55455;SDS011;63021;52.836;6.376;2023-03-23T17:09:23;10.85;;;3.25;;
55455;SDS011;63021;52.836;6.376;2023-03-23T17:11:50;12.75;;;3.40;;